createdAt,value
2023-04-17T00:00:05.057Z,305.000000
2023-04-17T00:01:00.575Z,307.500000
2023-04-17T00:02:00.695Z,307.500000
2023-04-17T00:03:00.849Z,307.500000
2023-04-17T00:04:00.895Z,310.000000
2023-04-17T00:05:03.237Z,310.000000
2023-04-17T00:06:00.671Z,305.000000
2023-04-17T00:07:00.601Z,305.000000
2023-04-17T00:08:00.667Z,305.000000
2023-04-17T00:09:00.619Z,312.500000
2023-04-17T00:10:03.747Z,312.500000
2023-04-17T00:11:08.039Z,310.000000
2023-04-17T00:12:00.711Z,310.000000
2023-04-17T00:13:00.624Z,310.000000
2023-04-17T00:14:01.055Z,305.000000
2023-04-17T00:15:03.495Z,305.000000
2023-04-17T00:16:00.798Z,310.000000
2023-04-17T00:17:00.645Z,310.000000
2023-04-17T00:18:00.757Z,310.000000
2023-04-17T00:19:00.664Z,310.000000
2023-04-17T00:20:03.690Z,310.000000
2023-04-17T00:21:00.703Z,315.000000
2023-04-17T00:22:00.768Z,315.000000
2023-04-17T00:23:00.690Z,315.000000
2023-04-17T00:24:00.771Z,310.000000
2023-04-17T00:25:03.171Z,310.000000
2023-04-17T00:26:00.754Z,302.500000
2023-04-17T00:27:00.718Z,302.500000
2023-04-17T00:28:00.815Z,302.500000
2023-04-17T00:29:00.699Z,305.000000
2023-04-17T00:30:03.966Z,305.000000
2023-04-17T00:31:00.759Z,305.000000
2023-04-17T00:32:00.806Z,305.000000
2023-04-17T00:33:00.791Z,305.000000
2023-04-17T00:34:00.822Z,295.000000
2023-04-17T00:35:03.284Z,295.000000
2023-04-17T00:36:00.832Z,295.000000
2023-04-17T00:37:00.749Z,310.000000
2023-04-17T00:38:00.840Z,310.000000
2023-04-17T00:39:00.762Z,285.000000
2023-04-17T00:40:03.912Z,285.000000
2023-04-17T00:41:00.798Z,285.000000
2023-04-17T00:42:00.880Z,285.000000
2023-04-17T00:43:00.788Z,285.000000
2023-04-17T00:44:00.871Z,315.000000
2023-04-17T00:45:04.350Z,315.000000
2023-04-17T00:47:00.819Z,310.000000
2023-04-17T00:48:00.973Z,310.000000
2023-04-17T00:49:00.827Z,317.500000
2023-04-17T00:50:03.644Z,317.500000
2023-04-17T00:51:00.876Z,317.500000
2023-04-17T00:52:00.902Z,315.000000
2023-04-17T00:53:00.855Z,315.000000
2023-04-17T00:54:00.952Z,305.000000
2023-04-17T00:55:03.735Z,305.000000
2023-04-17T00:56:00.950Z,305.000000
2023-04-17T00:57:00.908Z,297.500000
2023-04-17T00:58:00.944Z,297.500000
2023-04-17T00:59:00.900Z,297.500000
2023-04-17T01:00:05.291Z,315.000000
2023-04-17T01:01:01.024Z,315.000000
2023-04-17T01:02:01.046Z,305.000000
2023-04-17T01:03:01.046Z,305.000000
2023-04-17T01:04:01.159Z,305.000000
2023-04-17T01:05:03.985Z,300.000000
2023-04-17T01:06:01.003Z,300.000000
2023-04-17T01:07:00.932Z,310.000000
2023-04-17T01:08:01.001Z,310.000000
2023-04-17T01:09:01.004Z,310.000000
2023-04-17T01:10:04.259Z,310.000000
2023-04-17T01:11:00.940Z,310.000000
2023-04-17T01:12:01.046Z,305.000000
2023-04-17T01:13:00.958Z,305.000000
2023-04-17T01:14:01.041Z,305.000000
2023-04-17T01:15:03.609Z,305.000000
2023-04-17T01:16:01.064Z,305.000000
2023-04-17T01:17:01.073Z,315.000000
2023-04-17T01:18:01.094Z,315.000000
2023-04-17T01:19:00.995Z,315.000000
2023-04-17T01:20:04.116Z,307.500000
2023-04-17T01:21:01.021Z,307.500000
2023-04-17T01:22:01.080Z,307.500000
2023-04-17T01:23:01.001Z,307.500000
2023-04-17T01:24:01.112Z,307.500000
2023-04-17T01:25:03.546Z,320.000000
2023-04-17T01:26:01.087Z,320.000000
2023-04-17T01:27:01.041Z,320.000000
2023-04-17T01:28:01.119Z,300.000000
2023-04-17T01:29:01.024Z,300.000000
2023-04-17T01:30:03.954Z,300.000000
2023-04-17T01:31:01.079Z,300.000000
2023-04-17T01:32:01.175Z,305.000000
2023-04-17T01:33:01.145Z,305.000000
2023-04-17T01:34:01.133Z,305.000000
2023-04-17T01:35:03.559Z,312.500000
2023-04-17T01:36:01.140Z,312.500000
2023-04-17T01:37:01.070Z,302.500000
2023-04-17T01:38:01.209Z,302.500000
2023-04-17T01:39:01.078Z,302.500000
2023-04-17T01:40:05.094Z,300.000000
2023-04-17T01:41:01.093Z,300.000000
2023-04-17T01:42:01.194Z,300.000000
2023-04-17T01:43:01.114Z,302.500000
2023-04-17T01:44:01.213Z,302.500000
2023-04-17T01:45:03.693Z,302.500000
2023-04-17T01:46:01.248Z,302.500000
2023-04-17T01:47:01.142Z,302.500000
2023-04-17T01:48:01.313Z,307.500000
2023-04-17T01:49:01.152Z,307.500000
2023-04-17T01:50:04.201Z,307.500000
2023-04-17T01:51:00.179Z,307.500000
2023-04-17T01:52:00.240Z,307.500000
2023-04-17T01:53:00.155Z,307.500000
2023-04-17T01:54:00.262Z,307.500000
2023-04-17T01:55:03.353Z,305.000000
2023-04-17T01:56:00.265Z,305.000000
2023-04-17T01:57:00.220Z,295.000000
2023-04-17T01:58:00.264Z,295.000000
2023-04-17T01:59:00.216Z,295.000000
2023-04-17T02:00:03.505Z,305.000000
2023-04-17T02:01:00.213Z,305.000000
2023-04-17T02:02:00.366Z,305.000000
2023-04-17T02:03:00.392Z,305.000000
2023-04-17T02:04:07.719Z,305.000000
2023-04-17T02:05:02.813Z,305.000000
2023-04-17T02:06:03.971Z,305.000000
2023-04-17T02:07:00.227Z,305.000000
2023-04-17T02:08:00.348Z,305.000000
2023-04-17T02:09:00.299Z,305.000000
2023-04-17T02:10:03.306Z,295.000000
2023-04-17T02:11:00.258Z,295.000000
2023-04-17T02:12:00.340Z,300.000000
2023-04-17T02:13:00.265Z,300.000000
2023-04-17T02:14:00.369Z,300.000000
2023-04-17T02:15:02.843Z,315.000000
2023-04-17T02:16:00.382Z,315.000000
2023-04-17T02:17:00.272Z,315.000000
2023-04-17T02:18:00.402Z,305.000000
2023-04-17T02:19:00.281Z,305.000000
2023-04-17T02:20:04.741Z,305.000000
2023-04-17T02:21:00.309Z,302.500000
2023-04-17T02:22:00.383Z,302.500000
2023-04-17T02:23:00.302Z,320.000000
2023-04-17T02:24:00.391Z,320.000000
2023-04-17T02:25:03.430Z,312.500000
2023-04-17T02:26:00.423Z,312.500000
2023-04-17T02:27:00.366Z,312.500000
2023-04-17T02:28:00.407Z,305.000000
2023-04-17T02:29:00.334Z,305.000000
2023-04-17T02:30:04.893Z,297.500000
2023-04-17T02:31:00.362Z,297.500000
2023-04-17T02:32:00.427Z,297.500000
2023-04-17T02:33:00.441Z,297.500000
2023-04-17T02:34:00.431Z,297.500000
2023-04-17T02:35:03.728Z,297.500000
2023-04-17T02:36:00.509Z,297.500000
2023-04-17T02:37:00.381Z,297.500000
2023-04-17T02:38:00.474Z,297.500000
2023-04-17T02:39:00.396Z,297.500000
2023-04-17T02:40:03.305Z,297.500000
2023-04-17T02:41:00.393Z,302.500000
2023-04-17T02:42:00.480Z,302.500000
2023-04-17T02:43:00.408Z,317.500000
2023-04-17T02:44:00.498Z,317.500000
2023-04-17T02:45:03.180Z,317.500000
2023-04-17T02:46:00.491Z,305.000000
2023-04-17T02:47:00.576Z,305.000000
2023-04-17T02:48:00.592Z,307.500000
2023-04-17T02:49:00.434Z,307.500000
2023-04-17T02:50:03.776Z,307.500000
2023-04-17T02:51:00.464Z,317.500000
2023-04-17T02:52:00.568Z,317.500000
2023-04-17T02:53:00.478Z,302.500000
2023-04-17T02:54:00.563Z,302.500000
2023-04-17T02:55:03.228Z,302.500000
2023-04-17T02:56:00.589Z,307.500000
2023-04-17T02:57:00.499Z,307.500000
2023-04-17T02:58:00.601Z,300.000000
2023-04-17T02:59:00.509Z,300.000000
2023-04-17T03:00:03.744Z,300.000000
2023-04-17T03:01:00.625Z,307.500000
2023-04-17T03:02:00.743Z,307.500000
2023-04-17T03:03:00.857Z,307.500000
2023-04-17T03:04:00.955Z,310.000000
2023-04-17T03:05:03.256Z,310.000000
2023-04-17T03:06:00.732Z,317.500000
2023-04-17T03:07:00.590Z,317.500000
2023-04-17T03:08:00.699Z,322.500000
2023-04-17T03:09:00.614Z,322.500000
2023-04-17T03:10:03.672Z,317.500000
2023-04-17T03:11:00.605Z,317.500000
2023-04-17T03:12:00.713Z,317.500000
2023-04-17T03:13:00.648Z,317.500000
2023-04-17T03:14:00.741Z,317.500000
2023-04-17T03:15:03.292Z,317.500000
2023-04-17T03:16:00.824Z,310.000000
2023-04-17T03:17:00.643Z,310.000000
2023-04-17T03:18:00.811Z,300.000000
2023-04-17T03:19:00.649Z,300.000000
2023-04-17T03:20:03.924Z,305.000000
2023-04-17T03:21:00.740Z,305.000000
2023-04-17T03:22:00.784Z,305.000000
2023-04-17T03:23:00.688Z,292.500000
2023-04-17T03:24:00.833Z,292.500000
2023-04-17T03:25:03.309Z,292.500000
2023-04-17T03:26:00.783Z,347.500000
2023-04-17T03:27:00.713Z,347.500000
2023-04-17T03:28:00.765Z,330.000000
2023-04-17T03:29:00.703Z,330.000000
2023-04-17T03:30:04.832Z,330.000000
2023-04-17T03:31:00.723Z,330.000000
2023-04-17T03:32:00.926Z,330.000000
2023-04-17T03:33:00.835Z,330.000000
2023-04-17T03:35:08.429Z,312.500000
2023-04-17T03:36:00.836Z,312.500000
2023-04-17T03:37:00.750Z,310.000000
2023-04-17T03:38:00.845Z,310.000000
2023-04-17T03:39:00.792Z,305.000000
2023-04-17T03:40:03.614Z,305.000000
2023-04-17T03:41:00.758Z,320.000000
2023-04-17T03:42:00.867Z,320.000000
2023-04-17T03:43:00.790Z,320.000000
2023-04-17T03:44:00.896Z,307.500000
2023-04-17T03:45:03.603Z,307.500000
2023-04-17T03:46:00.928Z,312.500000
2023-04-17T03:47:00.810Z,312.500000
2023-04-17T03:48:00.965Z,312.500000
2023-04-17T03:49:00.817Z,330.000000
2023-04-17T03:50:04.156Z,330.000000
2023-04-17T03:51:00.857Z,330.000000
2023-04-17T03:52:00.921Z,330.000000
2023-04-17T03:53:00.842Z,330.000000
2023-04-17T03:54:01.007Z,312.500000
2023-04-17T03:55:03.694Z,312.500000
2023-04-17T03:56:00.977Z,312.500000
2023-04-17T03:57:00.870Z,330.000000
2023-04-17T03:58:00.968Z,330.000000
2023-04-17T03:59:00.864Z,330.000000
2023-04-17T04:00:05.259Z,332.500000
2023-04-17T04:01:00.905Z,332.500000
2023-04-17T04:02:01.082Z,332.500000
2023-04-17T04:03:01.041Z,332.500000
2023-04-17T04:04:01.071Z,327.500000
2023-04-17T04:05:03.895Z,327.500000
2023-04-17T04:06:01.014Z,327.500000
2023-04-17T04:07:00.923Z,325.000000
2023-04-17T04:08:01.013Z,325.000000
2023-04-17T04:09:00.923Z,322.500000
2023-04-17T04:10:03.939Z,322.500000
2023-04-17T04:11:00.987Z,322.500000
2023-04-17T04:12:01.053Z,345.000000
2023-04-17T04:13:00.960Z,345.000000
2023-04-17T04:14:01.044Z,345.000000
2023-04-17T04:15:03.568Z,345.000000
2023-04-17T04:16:01.326Z,345.000000
2023-04-17T04:17:00.971Z,355.000000
2023-04-17T04:18:01.101Z,355.000000
2023-04-17T04:19:01.001Z,355.000000
2023-04-17T04:20:04.452Z,352.500000
2023-04-17T04:21:01.021Z,352.500000
2023-04-17T04:22:01.085Z,0.000000
2023-04-17T04:23:01.004Z,0.000000
2023-04-17T04:24:01.096Z,0.000000
2023-04-17T04:25:04.853Z,347.500000
2023-04-17T04:26:01.121Z,347.500000
2023-04-17T04:27:01.033Z,332.500000
2023-04-17T04:28:01.145Z,332.500000
2023-04-17T04:29:01.042Z,320.000000
2023-04-17T04:30:05.015Z,320.000000
2023-04-17T04:31:01.080Z,320.000000
2023-04-17T04:35:03.917Z,327.500000
2023-04-17T04:36:01.540Z,327.500000
2023-04-17T04:37:01.087Z,335.000000
2023-04-17T04:38:01.178Z,335.000000
2023-04-17T04:39:01.114Z,312.500000
2023-04-17T04:40:05.489Z,312.500000
2023-04-17T04:41:01.103Z,312.500000
2023-04-17T04:42:01.195Z,340.000000
2023-04-17T04:43:01.123Z,340.000000
2023-04-17T04:44:01.258Z,340.000000
2023-04-17T04:45:03.817Z,322.500000
2023-04-17T04:46:01.212Z,322.500000
2023-04-17T04:47:01.310Z,322.500000
2023-04-17T04:48:01.345Z,322.500000
2023-04-17T04:49:00.149Z,322.500000
2023-04-17T04:50:03.660Z,335.000000
2023-04-17T04:51:00.178Z,335.000000
2023-04-17T04:52:00.246Z,322.500000
2023-04-17T04:53:00.174Z,322.500000
2023-04-17T04:54:00.275Z,330.000000
2023-04-17T04:55:02.763Z,330.000000
2023-04-17T04:56:00.278Z,330.000000
2023-04-17T04:57:00.194Z,335.000000
2023-04-17T04:58:00.242Z,335.000000
2023-04-17T04:59:00.223Z,320.000000
2023-04-17T05:00:03.733Z,320.000000
2023-04-17T05:01:00.261Z,320.000000
2023-04-17T05:02:00.521Z,322.500000
2023-04-17T05:03:00.359Z,322.500000
2023-04-17T05:04:00.447Z,330.000000
2023-04-17T05:05:02.885Z,330.000000
2023-04-17T05:06:00.342Z,330.000000
2023-04-17T05:07:00.254Z,305.000000
2023-04-17T05:08:00.338Z,305.000000
2023-04-17T05:09:00.273Z,305.000000
2023-04-17T05:10:03.469Z,307.500000
2023-04-17T05:11:00.270Z,307.500000
2023-04-17T05:12:00.364Z,330.000000
2023-04-17T05:13:00.287Z,330.000000
2023-04-17T05:14:00.390Z,330.000000
2023-04-17T05:15:03.137Z,340.000000
2023-04-17T05:16:01.979Z,340.000000
2023-04-17T05:17:00.296Z,340.000000
2023-04-17T05:18:00.498Z,320.000000
2023-04-17T05:19:00.335Z,320.000000
2023-04-17T05:20:05.268Z,320.000000
2023-04-17T05:21:00.380Z,320.000000
2023-04-17T05:22:03.031Z,330.000000
2023-04-17T05:23:00.382Z,330.000000
2023-04-17T05:24:01.794Z,330.000000
2023-04-17T05:25:02.818Z,350.000000
2023-04-17T05:26:00.488Z,350.000000
2023-04-17T05:27:00.400Z,350.000000
2023-04-17T05:28:00.949Z,332.500000
2023-04-17T05:29:00.400Z,332.500000
2023-04-17T05:30:03.875Z,340.000000
2023-04-17T05:31:00.430Z,340.000000
2023-04-17T05:32:08.073Z,15.000000
2023-04-17T05:33:00.507Z,15.000000
2023-04-17T05:34:08.193Z,37.500000
2023-04-17T05:35:03.175Z,52.500000
2023-04-17T05:36:02.560Z,52.500000
2023-04-17T05:37:00.464Z,52.500000
2023-04-17T05:38:01.200Z,25.000000
2023-04-17T05:39:00.471Z,25.000000
2023-04-17T05:40:03.778Z,25.000000
2023-04-17T05:41:00.488Z,350.000000
2023-04-17T05:42:00.592Z,350.000000
2023-04-17T05:43:00.485Z,347.500000
2023-04-17T05:44:01.712Z,347.500000
2023-04-17T05:45:03.229Z,345.000000
2023-04-17T05:46:01.091Z,345.000000
2023-04-17T05:47:00.535Z,337.500000
2023-04-17T05:48:01.552Z,337.500000
2023-04-17T05:49:00.523Z,337.500000
2023-04-17T05:50:04.392Z,315.000000
2023-04-17T05:51:00.597Z,315.000000
2023-04-17T05:52:00.747Z,315.000000
2023-04-17T05:53:00.573Z,0.000000
2023-04-17T05:54:03.763Z,0.000000
2023-04-17T05:55:03.264Z,357.500000
2023-04-17T05:56:01.130Z,357.500000
2023-04-17T05:57:00.619Z,345.000000
2023-04-17T05:58:10.470Z,345.000000
2023-04-17T05:59:00.605Z,345.000000
2023-04-17T06:00:05.284Z,342.500000
2023-04-17T06:01:00.658Z,342.500000
2023-04-17T06:02:08.301Z,342.500000
2023-04-17T06:03:00.908Z,12.500000
2023-04-17T06:04:02.178Z,12.500000
2023-04-17T06:05:03.510Z,12.500000
2023-04-17T06:06:02.006Z,357.500000
2023-04-17T06:07:00.681Z,357.500000
2023-04-17T06:08:02.724Z,345.000000
2023-04-17T06:09:00.701Z,345.000000
2023-04-17T06:10:05.182Z,10.000000
2023-04-17T06:11:00.705Z,10.000000
2023-04-17T06:12:02.457Z,10.000000
2023-04-17T06:13:00.757Z,15.000000
2023-04-17T06:14:01.433Z,15.000000
2023-04-17T06:15:04.448Z,22.500000
2023-04-17T06:16:01.563Z,22.500000
2023-04-17T06:17:00.788Z,22.500000
2023-04-17T06:18:03.096Z,37.500000
2023-04-17T06:19:00.735Z,37.500000
2023-04-17T06:20:03.652Z,7.500000
2023-04-17T06:21:00.752Z,7.500000
2023-04-17T06:22:01.610Z,7.500000
2023-04-17T06:23:00.752Z,0.000000
2023-04-17T06:24:01.609Z,0.000000
2023-04-17T06:25:04.967Z,357.500000
2023-04-17T06:26:01.762Z,357.500000
2023-04-17T06:27:00.767Z,357.500000
2023-04-17T06:28:01.750Z,357.500000
2023-04-17T06:29:00.822Z,357.500000
2023-04-17T06:30:05.188Z,10.000000
2023-04-17T06:31:00.856Z,10.000000
2023-04-17T06:32:03.059Z,10.000000
2023-04-17T06:33:00.864Z,30.000000
2023-04-17T06:34:01.700Z,30.000000
2023-04-17T06:35:05.114Z,30.000000
2023-04-17T06:36:03.065Z,5.000000
2023-04-17T06:37:00.835Z,5.000000
2023-04-17T06:38:01.842Z,5.000000
2023-04-17T06:39:00.861Z,15.000000
2023-04-17T06:40:03.734Z,15.000000
2023-04-17T06:41:00.856Z,20.000000
2023-04-17T06:42:01.761Z,20.000000
2023-04-17T06:43:00.861Z,40.000000
2023-04-17T06:44:03.038Z,40.000000
2023-04-17T06:45:03.934Z,40.000000
2023-04-17T06:46:01.735Z,17.500000
2023-04-17T06:47:02.951Z,17.500000
2023-04-17T06:48:01.794Z,17.500000
2023-04-17T06:49:00.903Z,52.500000
2023-04-17T06:50:03.882Z,52.500000
2023-04-17T06:51:00.950Z,5.000000
2023-04-17T06:52:01.954Z,5.000000
2023-04-17T06:53:00.923Z,70.000000
2023-04-17T06:54:03.097Z,70.000000
2023-04-17T06:55:03.710Z,70.000000
2023-04-17T06:56:01.273Z,2.500000
2023-04-17T06:57:01.000Z,2.500000
2023-04-17T06:58:01.698Z,2.500000
2023-04-17T06:59:03.025Z,0.000000
2023-04-17T07:00:04.692Z,0.000000
2023-04-17T07:01:00.961Z,0.000000
2023-04-17T07:02:02.067Z,12.500000
2023-04-17T07:03:01.057Z,12.500000
2023-04-17T07:04:01.948Z,47.500000
2023-04-17T07:05:03.638Z,47.500000
2023-04-17T07:06:02.041Z,47.500000
2023-04-17T07:07:01.028Z,47.500000
2023-04-17T07:08:03.107Z,47.500000
2023-04-17T07:09:01.042Z,65.000000
2023-04-17T07:10:05.717Z,65.000000
2023-04-17T07:11:01.060Z,65.000000
2023-04-17T07:12:03.115Z,70.000000
2023-04-17T07:13:01.042Z,70.000000
2023-04-17T07:14:02.099Z,97.500000
2023-04-17T07:15:03.739Z,97.500000
2023-04-17T07:16:03.206Z,57.500000
2023-04-17T07:17:01.077Z,57.500000
2023-04-17T07:18:02.088Z,57.500000
2023-04-17T07:19:01.079Z,5.000000
2023-04-17T07:20:04.256Z,5.000000
2023-04-17T07:21:01.144Z,5.000000
2023-04-17T07:22:02.100Z,100.000000
2023-04-17T07:23:01.122Z,100.000000
2023-04-17T07:24:03.172Z,20.000000
2023-04-17T07:25:04.062Z,20.000000
2023-04-17T07:26:02.013Z,20.000000
2023-04-17T07:27:01.203Z,107.500000
2023-04-17T07:28:04.413Z,107.500000
2023-04-17T07:29:01.142Z,65.000000
2023-04-17T07:30:04.349Z,65.000000
2023-04-17T07:31:01.229Z,65.000000
2023-04-17T07:32:03.257Z,112.500000
2023-04-17T07:33:00.237Z,112.500000
2023-04-17T07:34:00.243Z,107.500000
2023-04-17T07:35:02.683Z,107.500000
2023-04-17T07:36:00.352Z,107.500000
2023-04-17T07:37:00.171Z,25.000000
2023-04-17T07:38:00.386Z,25.000000
2023-04-17T07:39:00.233Z,15.000000
2023-04-17T07:40:03.314Z,15.000000
2023-04-17T07:41:00.214Z,15.000000
2023-04-17T07:42:00.316Z,0.000000
2023-04-17T07:43:00.255Z,0.000000
2023-04-17T07:44:00.358Z,30.000000
2023-04-17T07:45:03.056Z,30.000000
2023-04-17T07:46:00.322Z,30.000000
2023-04-17T07:47:00.316Z,57.500000
2023-04-17T07:48:00.431Z,57.500000
2023-04-17T07:49:00.274Z,60.000000
2023-04-17T07:50:04.952Z,60.000000
2023-04-17T07:51:00.273Z,347.500000
2023-04-17T07:52:01.473Z,347.500000
2023-04-17T07:53:00.308Z,347.500000
2023-04-17T07:54:00.407Z,2.500000
2023-04-17T07:55:02.961Z,2.500000
2023-04-17T07:56:00.547Z,2.500000
2023-04-17T07:57:00.319Z,322.500000
2023-04-17T07:58:00.462Z,322.500000
2023-04-17T07:59:00.315Z,70.000000
2023-04-17T08:00:04.806Z,70.000000
2023-04-17T08:01:00.423Z,25.000000
2023-04-17T08:02:00.531Z,25.000000
2023-04-17T08:03:00.467Z,25.000000
2023-04-17T08:04:00.566Z,25.000000
2023-04-17T08:05:03.735Z,25.000000
2023-04-17T08:06:00.488Z,25.000000
2023-04-17T08:07:00.453Z,15.000000
2023-04-17T08:08:01.357Z,15.000000
2023-04-17T08:09:00.482Z,5.000000
2023-04-17T08:10:06.085Z,5.000000
2023-04-17T08:11:00.462Z,355.000000
2023-04-17T08:12:00.509Z,355.000000
2023-04-17T08:13:00.424Z,355.000000
2023-04-17T08:14:00.505Z,62.500000
2023-04-17T08:15:03.240Z,62.500000
2023-04-17T08:16:00.548Z,62.500000
2023-04-17T08:17:00.528Z,10.000000
2023-04-17T08:18:00.579Z,10.000000
2023-04-17T08:19:00.457Z,10.000000
2023-04-17T08:20:04.130Z,70.000000
2023-04-17T08:21:00.482Z,70.000000
2023-04-17T08:22:00.738Z,20.000000
2023-04-17T08:23:00.512Z,20.000000
2023-04-17T08:24:00.594Z,7.500000
2023-04-17T08:25:03.243Z,7.500000
2023-04-17T08:26:00.615Z,7.500000
2023-04-17T08:27:00.645Z,97.500000
2023-04-17T08:28:00.621Z,97.500000
2023-04-17T08:29:00.529Z,97.500000
2023-04-17T08:30:04.296Z,92.500000
2023-04-17T08:31:00.576Z,92.500000
2023-04-17T08:32:14.155Z,352.500000
2023-04-17T08:33:00.631Z,352.500000
2023-04-17T08:34:12.974Z,342.500000
2023-04-17T08:35:03.200Z,342.500000
2023-04-17T08:36:02.231Z,342.500000
2023-04-17T08:37:00.569Z,25.000000
2023-04-17T08:38:00.649Z,25.000000
2023-04-17T08:39:00.595Z,25.000000
2023-04-17T08:40:04.867Z,15.000000
2023-04-17T08:41:00.598Z,15.000000
2023-04-17T08:42:00.708Z,15.000000
2023-04-17T08:43:00.606Z,357.500000
2023-04-17T08:44:00.685Z,357.500000
2023-04-17T08:45:03.163Z,70.000000
2023-04-17T08:46:00.764Z,70.000000
2023-04-17T08:47:00.608Z,27.500000
2023-04-17T08:48:00.732Z,27.500000
2023-04-17T08:49:00.624Z,27.500000
2023-04-17T08:50:03.670Z,60.000000
2023-04-17T08:51:00.719Z,60.000000
2023-04-17T08:52:00.733Z,50.000000
2023-04-17T08:53:00.672Z,50.000000
2023-04-17T08:54:00.749Z,50.000000
2023-04-17T08:55:03.446Z,42.500000
2023-04-17T08:56:02.358Z,42.500000
2023-04-17T08:57:00.688Z,15.000000
2023-04-17T08:58:00.795Z,15.000000
2023-04-17T08:59:00.678Z,15.000000
2023-04-17T09:00:04.984Z,47.500000
2023-04-17T09:01:00.709Z,47.500000
2023-04-17T09:02:02.361Z,47.500000
2023-04-17T09:03:01.032Z,75.000000
2023-04-17T09:04:01.125Z,75.000000
2023-04-17T09:05:03.218Z,62.500000
2023-04-17T09:06:16.601Z,62.500000
2023-04-17T09:07:00.747Z,62.500000
2023-04-17T09:08:01.006Z,20.000000
2023-04-17T09:09:00.769Z,20.000000
2023-04-17T09:10:03.842Z,20.000000
2023-04-17T09:11:00.763Z,7.500000
2023-04-17T09:12:00.854Z,7.500000
2023-04-17T09:13:00.777Z,30.000000
2023-04-17T09:14:02.121Z,30.000000
2023-04-17T09:15:03.606Z,2.500000
2023-04-17T09:16:00.934Z,2.500000
2023-04-17T09:17:00.773Z,12.500000
2023-04-17T09:18:00.955Z,12.500000
2023-04-17T09:19:00.798Z,12.500000
2023-04-17T09:20:06.710Z,337.500000
2023-04-17T09:21:00.836Z,337.500000
2023-04-17T09:22:00.892Z,337.500000
2023-04-17T09:23:00.871Z,52.500000
2023-04-17T09:24:00.917Z,52.500000
2023-04-17T09:25:03.519Z,17.500000
2023-04-17T09:26:01.020Z,17.500000
2023-04-17T09:27:00.854Z,45.000000
2023-04-17T09:28:00.940Z,45.000000
2023-04-17T09:29:00.839Z,45.000000
2023-04-17T09:30:05.879Z,0.000000
2023-04-17T09:31:00.948Z,0.000000
2023-04-17T09:32:01.058Z,0.000000
2023-04-17T09:33:00.922Z,7.500000
2023-04-17T09:34:00.979Z,7.500000
2023-04-17T09:35:03.761Z,7.500000
2023-04-17T09:36:00.980Z,50.000000
2023-04-17T09:37:00.874Z,50.000000
2023-04-17T09:38:00.969Z,7.500000
2023-04-17T09:39:00.953Z,7.500000
2023-04-17T09:40:04.723Z,10.000000
2023-04-17T09:41:00.924Z,10.000000
2023-04-17T09:42:02.997Z,10.000000
2023-04-17T09:43:00.943Z,2.500000
2023-04-17T09:44:01.033Z,2.500000
2023-04-17T09:45:05.473Z,15.000000
2023-04-17T09:46:08.254Z,15.000000
2023-04-17T09:47:01.042Z,15.000000
2023-04-17T09:48:01.202Z,2.500000
2023-04-17T09:49:00.966Z,2.500000
2023-04-17T09:50:04.358Z,80.000000
2023-04-17T09:51:00.990Z,80.000000
2023-04-17T09:52:01.037Z,80.000000
2023-04-17T09:53:00.969Z,105.000000
2023-04-17T09:54:01.089Z,105.000000
2023-04-17T09:55:05.063Z,340.000000
2023-04-17T09:56:01.074Z,340.000000
2023-04-17T09:57:01.035Z,340.000000
2023-04-17T09:58:01.127Z,350.000000
2023-04-17T09:59:01.025Z,350.000000
2023-04-17T10:00:05.973Z,12.500000
2023-04-17T10:01:01.088Z,12.500000
2023-04-17T10:02:01.217Z,12.500000
2023-04-17T10:03:01.261Z,12.500000
2023-04-17T10:04:01.361Z,12.500000
2023-04-17T10:05:04.328Z,12.500000
2023-04-17T10:06:01.144Z,62.500000
2023-04-17T10:07:01.134Z,62.500000
2023-04-17T10:08:01.271Z,62.500000
2023-04-17T10:09:01.127Z,30.000000
2023-04-17T10:10:04.845Z,30.000000
2023-04-17T10:11:01.106Z,15.000000
2023-04-17T10:12:01.188Z,15.000000
2023-04-17T10:13:01.093Z,32.500000
2023-04-17T10:14:01.189Z,32.500000
2023-04-17T10:15:03.850Z,32.500000
2023-04-17T10:16:01.268Z,30.000000
2023-04-17T10:17:01.152Z,30.000000
2023-04-17T10:18:01.320Z,80.000000
2023-04-17T10:19:01.131Z,80.000000
2023-04-17T10:20:04.641Z,80.000000
2023-04-17T10:21:01.167Z,15.000000
2023-04-17T10:22:01.236Z,15.000000
2023-04-17T10:23:01.161Z,20.000000
2023-04-17T10:24:00.231Z,20.000000
2023-04-17T10:25:03.162Z,20.000000
2023-04-17T10:26:00.442Z,25.000000
2023-04-17T10:27:00.175Z,25.000000
2023-04-17T10:28:00.228Z,25.000000
2023-04-17T10:29:00.176Z,350.000000
2023-04-17T10:30:03.355Z,350.000000
2023-04-17T10:31:00.212Z,347.500000
2023-04-17T10:32:00.321Z,347.500000
2023-04-17T10:33:00.280Z,347.500000
2023-04-17T10:34:00.299Z,12.500000
2023-04-17T10:35:03.087Z,12.500000
2023-04-17T10:36:00.322Z,20.000000
2023-04-17T10:37:00.229Z,20.000000
2023-04-17T10:38:00.331Z,20.000000
2023-04-17T10:39:00.270Z,17.500000
2023-04-17T10:40:03.394Z,17.500000
2023-04-17T10:41:00.266Z,92.500000
2023-04-17T10:42:00.341Z,92.500000
2023-04-17T10:43:00.264Z,92.500000
2023-04-17T10:44:00.364Z,80.000000
2023-04-17T10:45:03.096Z,80.000000
2023-04-17T10:46:00.475Z,7.500000
2023-04-17T10:47:00.299Z,7.500000
2023-04-17T10:48:00.466Z,7.500000
2023-04-17T10:49:00.267Z,15.000000
2023-04-17T10:50:04.797Z,15.000000
2023-04-17T10:51:00.328Z,15.000000
2023-04-17T10:52:00.435Z,35.000000
2023-04-17T10:53:00.322Z,35.000000
2023-04-17T10:54:00.406Z,67.500000
2023-04-17T10:55:02.827Z,67.500000
2023-04-17T10:56:00.468Z,152.500000
2023-04-17T10:57:00.401Z,152.500000
2023-04-17T10:58:00.440Z,207.500000
2023-04-17T10:59:00.344Z,207.500000
2023-04-17T11:00:03.648Z,207.500000
2023-04-17T11:01:00.389Z,30.000000
2023-04-17T11:02:00.969Z,30.000000
2023-04-17T11:03:00.435Z,30.000000
2023-04-17T11:04:00.518Z,15.000000
2023-04-17T11:05:03.208Z,15.000000
2023-04-17T11:06:00.462Z,357.500000
2023-04-17T11:07:00.380Z,357.500000
2023-04-17T11:08:00.533Z,325.000000
2023-04-17T11:09:00.480Z,325.000000
2023-04-17T11:10:04.839Z,325.000000
2023-04-17T11:11:00.471Z,357.500000
2023-04-17T11:12:00.495Z,357.500000
2023-04-17T11:13:00.441Z,357.500000
2023-04-17T11:14:00.524Z,75.000000
2023-04-17T11:15:03.249Z,75.000000
2023-04-17T11:16:00.516Z,15.000000
2023-04-17T11:17:00.542Z,15.000000
2023-04-17T11:18:00.578Z,15.000000
2023-04-17T11:19:00.456Z,2.500000